Frazer, Kentucky
Current Conditions -  °F | °C
As of 12:56 PM on Tuesday 21 Oct 2014 (Local Time) from KEKQ Reporting Station
NA  
Wind Chill: 65°   Ceiling: NA
Heat Index: 65°   Visibility: 10mi
Dew Point: 44°   Wind: 9mph
Humidity: 46%   Direction: 320°NW
Pressure: 30.07"   Gusts: NA
Location:  36.8129°N, 84.8215°W
Report Text: KEKQ 211656Z AUTO 32008KT 10SM 18/07 A3007 RMK AO2 T01830066 SLP186 $
Loading
Personal Weather Stations






























Interactive Weather Map
Tropical Storm Tracking
New forecast layout! Learn more

10-Day Weather Forecast

Advertisements
Track Severe Weather on mobile